Terminal Aerodrome Forecast
Issued by NWS

Home | Current Version | Previous Version | Text Only | Print | Product List | Glossary On
Versions: 1 2 3 4 5 6 7 8 9 10 11 12 13 14 15 16 17 18 19 20 21
000
FTUS43 KMQT 192100 AAA
TAFCMX
TAF AMD
KCMX 192145Z 1922/2018 20015KT P6SM -SHRA BKN040
      TEMPO 1922/1923 5SM TSRA BKN030CB
     FM200100 23010KT P6SM -SHRA BKN015
     FM200600 25008KT P6SM -SHRA OVC008
     FM201200 28010KT P6SM BKN020
     FM201500 28010KT P6SM BKN030=

USA.gov is the U.S. government's official web portal to all federal, state and local government web resources and services.